Time;durP1;ratioP1;P1;durP2;ratioP2;P2;SDS_P1;SDS_P2;PMS_P1;PMS_P2;Temp;Humidity;BMP_temperature;BMP_pressure;BME280_temperature;BME280_humidity;BME280_pressure;Samples;Min_cycle;Max_cycle;Signal;HPM_P1;HPM_P2
2022/05/26 00:04:51;;;;;;;;;;;14.70;94.80;;;;;;5013691;28;19940;-64
2022/05/26 00:07:27;;;;;;;;;;;;;;;;;;;;;
2022/05/26 00:09:54;;;;;;;;;;;14.80;94.20;;;;;;5023704;28;19943;-64
2022/05/26 00:12:21;;;;;;;;;;;15.00;94.70;;;;;;5028638;28;20006;-64
2022/05/26 00:14:48;;;;;;;;;;;15.10;94.00;;;;;;5013909;28;19909;-64
2022/05/26 00:17:14;;;;;;;;;;;15.20;94.00;;;;;;5022025;28;19913;-65
2022/05/26 00:19:42;;;;;;;;;;;15.40;93.90;;;;;;5018124;28;19913;-64
2022/05/26 00:22:08;;;;;;;;;;;15.50;93.50;;;;;;5019328;28;19963;-65
2022/05/26 00:24:35;;;;;;;;;;;15.60;92.70;;;;;;5016973;28;20318;-63
2022/05/26 00:27:02;;;;;;;;;;;15.70;92.10;;;;;;5014556;28;19905;-64
2022/05/26 00:29:37;;;;;;;;;;;15.70;92.30;;;;;;5016741;28;19988;-65
2022/05/26 00:32:04;;;;;;;;;;;15.90;93.20;;;;;;5018069;28;20351;-64
2022/05/26 00:34:31;;;;;;;;;;;16.00;92.80;;;;;;5027597;28;20019;-64
2022/05/26 00:36:58;;;;;;;;;;;16.20;92.80;;;;;;5019471;28;20366;-64
2022/05/26 00:39:25;;;;;;;;;;;16.30;92.60;;;;;;5017915;28;19913;-64
2022/05/26 00:42:00;;;;;;;;;;;16.40;91.60;;;;;;5026770;28;19913;-65
2022/05/26 00:44:30;;;;;;;;;;;16.60;91.50;;;;;;5028991;28;20034;-64
2022/05/26 00:46:57;;;;;;;;;;;16.60;90.90;;;;;;5018241;28;19917;-66
2022/05/26 00:49:33;;;;;;;;;;;16.80;90.90;;;;;;5018481;28;20358;-66
2022/05/26 00:51:59;;;;;;;;;;;16.80;91.00;;;;;;5019664;28;19910;-65
2022/05/26 00:54:26;;;;;;;;;;;16.90;90.10;;;;;;5015490;28;20439;-67
2022/05/26 00:56:53;;;;;;;;;;;16.90;90.40;;;;;;5020546;28;19954;-67
2022/05/26 00:59:25;;;;;;;;;;;17.00;89.60;;;;;;5025075;28;19916;-65
2022/05/26 01:01:52;;;;;;;;;;;17.00;90.90;;;;;;5025713;28;19962;-66
2022/05/26 01:04:21;;;;;;;;;;;17.10;89.60;;;;;;5025820;28;19960;-66
2022/05/26 01:07:08;;;;;;;;;;;17.10;89.20;;;;;;5024826;28;19952;-66
2022/05/26 01:09:34;;;;;;;;;;;17.20;90.80;;;;;;5019886;28;19917;-66
2022/05/26 01:12:01;;;;;;;;;;;17.30;89.00;;;;;;5020129;28;20562;-65
2022/05/26 01:14:31;;;;;;;;;;;17.50;84.90;;;;;;5025477;28;19916;-66
2022/05/26 01:17:21;;;;;;;;;;;17.60;87.30;;;;;;5026464;28;19909;-65
2022/05/26 01:20:05;;;;;;;;;;;17.50;85.90;;;;;;5022528;28;19959;-65
2022/05/26 01:22:41;;;;;;;;;;;17.50;88.30;;;;;;5026791;28;19920;-66
2022/05/26 01:25:14;;;;;;;;;;;17.60;87.90;;;;;;5023235;28;19963;-66
2022/05/26 01:27:41;;;;;;;;;;;17.50;88.20;;;;;;5023570;28;19913;-66
2022/05/26 01:30:21;;;;;;;;;;;17.60;87.70;;;;;;5021234;28;19999;-63
2022/05/26 01:32:48;;;;;;;;;;;17.70;86.70;;;;;;5028908;28;19909;-63
2022/05/26 01:35:19;;;;;;;;;;;17.90;87.40;;;;;;5024698;28;19910;-63
2022/05/26 01:37:58;;;;;;;;;;;18.10;86.70;;;;;;5021028;28;19913;-63
2022/05/26 01:40:35;;;;;;;;;;;18.30;82.70;;;;;;5023700;28;19913;-64
2022/05/26 01:43:02;;;;;;;;;;;18.40;86.40;;;;;;5017613;28;19909;-63
2022/05/26 01:45:47;;;;;;;;;;;18.60;81.90;;;;;;5020547;28;20012;-64
2022/05/26 01:48:14;;;;;;;;;;;18.90;87.10;;;;;;5018490;28;19913;-62
2022/05/26 01:50:46;;;;;;;;;;;19.20;81.80;;;;;;5014726;28;19924;-63
2022/05/26 01:53:13;;;;;;;;;;;19.30;77.60;;;;;;5016587;28;19947;-63
2022/05/26 01:55:39;;;;;;;;;;;19.40;78.40;;;;;;5026032;28;20400;-63
2022/05/26 01:58:16;;;;;;;;;;;19.40;80.30;;;;;;5022215;28;20385;-63
2022/05/26 02:00:44;;;;;;;;;;;19.40;77.90;;;;;;5022670;28;19909;-63
2022/05/26 02:03:13;;;;;;;;;;;19.50;78.30;;;;;;5028317;28;19966;-63
2022/05/26 02:05:51;;;;;;;;;;;19.70;78.90;;;;;;5022263;28;20365;-63
2022/05/26 02:08:24;;;;;;;;;;;19.70;79.20;;;;;;5029123;28;19913;-62
2022/05/26 02:10:52;;;;;;;;;;;19.90;78.30;;;;;;5029264;28;20413;-63
2022/05/26 02:13:39;;;;;;;;;;;20.00;75.50;;;;;;5023348;28;20393;-62
2022/05/26 02:16:25;;;;;;;;;;;19.90;75.30;;;;;;5022279;28;19951;-63
2022/05/26 02:19:15;;;;;;;;;;;20.10;77.60;;;;;;5027982;28;20404;-64
2022/05/26 02:21:47;;;;;;;;;;;20.30;75.20;;;;;;5009588;28;20585;-63
2022/05/26 02:24:36;;;;;;;;;;;20.30;77.10;;;;;;5025184;28;19917;-63
2022/05/26 02:27:04;;;;;;;;;;;20.40;75.70;;;;;;5019046;28;19920;-63
2022/05/26 02:32:16;;;;;;;;;;;20.40;73.70;;;;;;5029027;28;19936;-63
2022/05/26 02:34:44;;;;;;;;;;;20.30;73.70;;;;;;5026906;28;19913;-64
2022/05/26 02:37:12;;;;;;;;;;;20.20;74.80;;;;;;5019227;28;19914;-63
2022/05/26 02:39:39;;;;;;;;;;;20.20;75.10;;;;;;5021173;28;20021;-62
2022/05/26 02:42:06;;;;;;;;;;;20.20;74.20;;;;;;5019008;28;19909;-66
2022/05/26 02:44:33;;;;;;;;;;;20.30;75.20;;;;;;5017121;28;19996;-63
2022/05/26 02:47:05;;;;;;;;;;;20.30;75.70;;;;;;5022796;28;20016;-64
2022/05/26 02:49:32;;;;;;;;;;;20.30;73.90;;;;;;5025198;28;20476;-64
2022/05/26 02:52:05;;;;;;;;;;;20.40;75.60;;;;;;5019678;28;19951;-63
2022/05/26 02:54:50;;;;;;;;;;;20.40;73.50;;;;;;5016960;28;20000;-63
2022/05/26 02:57:24;;;;;;;;;;;20.60;75.50;;;;;;5024816;28;20361;-63
2022/05/26 03:00:00;;;;;;;;;;;20.70;73.70;;;;;;5024700;28;19917;-63
2022/05/26 03:02:38;;;;;;;;;;;20.80;72.80;;;;;;5020626;28;20294;-65
2022/05/26 03:05:14;;;;;;;;;;;20.80;72.20;;;;;;5020595;28;19917;-64
2022/05/26 03:07:43;;;;;;;;;;;20.90;72.60;;;;;;5019414;28;19917;-64
2022/05/26 03:10:10;;;;;;;;;;;20.90;70.20;;;;;;5017145;28;19921;-64
2022/05/26 03:12:37;;;;;;;;;;;20.90;71.40;;;;;;5022115;28;20029;-64
2022/05/26 03:15:05;;;;;;;;;;;20.90;71.40;;;;;;5026017;28;19915;-64
2022/05/26 03:17:31;;;;;;;;;;;20.90;70.40;;;;;;5027466;28;19905;-64
2022/05/26 03:19:58;;;;;;;;;;;21.00;70.90;;;;;;5023132;28;19918;-64
2022/05/26 03:22:25;;;;;;;;;;;21.00;70.70;;;;;;5020846;28;19932;-63
2022/05/26 03:24:51;;;;;;;;;;;21.00;71.30;;;;;;5024320;28;19928;-64
2022/05/26 03:27:18;;;;;;;;;;;21.00;70.60;;;;;;5017602;28;19913;-64
2022/05/26 03:29:45;;;;;;;;;;;21.00;70.00;;;;;;5020662;28;19909;-63
2022/05/26 03:32:11;;;;;;;;;;;20.90;69.80;;;;;;5027903;28;19920;-63
2022/05/26 03:42:52;;;;;;;;;;;21.00;68.80;;;;;;5022492;28;20436;-65
2022/05/26 03:45:22;;;;;;;;;;;21.00;69.00;;;;;;5022149;28;19921;-64
2022/05/26 03:47:49;;;;;;;;;;;21.00;67.80;;;;;;5025595;28;20396;-64
2022/05/26 03:50:16;;;;;;;;;;;21.00;67.80;;;;;;5025758;28;19905;-64
2022/05/26 03:52:42;;;;;;;;;;;20.90;68.00;;;;;;5013337;28;20139;-64
2022/05/26 03:55:09;;;;;;;;;;;20.90;69.10;;;;;;5014479;28;20408;-64
2022/05/26 03:57:36;;;;;;;;;;;20.90;69.90;;;;;;5025045;28;19909;-64
2022/05/26 04:00:03;;;;;;;;;;;20.90;68.90;;;;;;5021674;28;19913;-64
2022/05/26 04:02:30;;;;;;;;;;;20.80;69.60;;;;;;5021483;28;20255;-63
2022/05/26 04:04:56;;;;;;;;;;;20.80;69.10;;;;;;5024800;28;19924;-63
2022/05/26 04:07:23;;;;;;;;;;;20.70;70.00;;;;;;5026158;28;19919;-64
2022/05/26 04:09:50;;;;;;;;;;;20.70;69.10;;;;;;5031510;28;19959;-63
2022/05/26 04:12:18;;;;;;;;;;;20.60;67.00;;;;;;5027688;28;19967;-63
2022/05/26 04:14:44;;;;;;;;;;;20.50;67.10;;;;;;5024807;28;20444;-63
2022/05/26 04:17:11;;;;;;;;;;;20.50;67.80;;;;;;5023797;28;19941;-63
2022/05/26 04:19:41;;;;;;;;;;;20.50;66.90;;;;;;5019053;28;19964;-64
2022/05/26 04:22:18;;;;;;;;;;;20.50;66.90;;;;;;5026019;28;19916;-63
2022/05/26 04:24:46;;;;;;;;;;;20.40;67.10;;;;;;5028792;28;20365;-64
2022/05/26 04:27:13;;;;;;;;;;;20.40;67.20;;;;;;5029263;28;19995;-63
2022/05/26 04:29:40;;;;;;;;;;;20.40;67.90;;;;;;5026631;28;20023;-63
2022/05/26 04:32:07;;;;;;;;;;;20.30;68.50;;;;;;5026738;28;20011;-63
2022/05/26 04:34:33;;;;;;;;;;;20.30;67.60;;;;;;5029243;28;19909;-63
2022/05/26 04:37:00;;;;;;;;;;;20.20;68.00;;;;;;5019786;28;19916;-63
2022/05/26 04:39:27;;;;;;;;;;;20.20;68.20;;;;;;5026031;28;20426;-63
2022/05/26 04:41:58;;;;;;;;;;;20.20;68.60;;;;;;5021929;28;19958;-63
2022/05/26 04:44:24;;;;;;;;;;;20.20;69.00;;;;;;5027685;28;20414;-63
2022/05/26 04:46:51;;;;;;;;;;;20.30;68.80;;;;;;5014772;28;19913;-62
2022/05/26 04:49:17;;;;;;;;;;;20.30;68.60;;;;;;5025274;28;19986;-64
2022/05/26 04:51:45;;;;;;;;;;;20.30;69.20;;;;;;5025612;28;19917;-63
2022/05/26 04:54:11;;;;;;;;;;;20.20;68.90;;;;;;5026680;28;19920;-63
2022/05/26 04:56:38;;;;;;;;;;;20.30;69.20;;;;;;5018254;28;20383;-62
2022/05/26 04:59:06;;;;;;;;;;;20.20;69.20;;;;;;5027204;28;20004;-62
2022/05/26 05:01:32;;;;;;;;;;;20.20;69.60;;;;;;5026191;28;20395;-63
2022/05/26 05:04:00;;;;;;;;;;;20.20;69.60;;;;;;5023818;28;19956;-63
2022/05/26 05:06:26;;;;;;;;;;;20.10;69.90;;;;;;5019536;28;19921;-63
2022/05/26 05:08:53;;;;;;;;;;;20.10;70.60;;;;;;5019939;28;19920;-64
2022/05/26 05:11:20;;;;;;;;;;;20.00;71.10;;;;;;5024323;28;19913;-64
2022/05/26 05:13:46;;;;;;;;;;;20.10;70.50;;;;;;5025498;28;19913;-62
2022/05/26 05:16:16;;;;;;;;;;;20.00;70.60;;;;;;5029111;28;20131;-64
2022/05/26 05:18:44;;;;;;;;;;;19.90;72.00;;;;;;5010928;28;20664;-63
2022/05/26 05:21:12;;;;;;;;;;;19.90;72.30;;;;;;5011649;28;19913;-63
2022/05/26 05:23:40;;;;;;;;;;;20.00;71.80;;;;;;5014190;28;20264;-63
2022/05/26 05:26:09;;;;;;;;;;;19.90;71.60;;;;;;5021172;28;19928;-64
2022/05/26 05:28:37;;;;;;;;;;;19.90;71.40;;;;;;5021526;28;19945;-63
2022/05/26 05:31:07;;;;;;;;;;;19.90;72.00;;;;;;5012684;28;20219;-62
2022/05/26 05:33:54;;;;;;;;;;;19.90;71.80;;;;;;5022513;28;20396;-63
2022/05/26 05:36:31;;;;;;;;;;;19.90;72.20;;;;;;5025344;28;19921;-63
2022/05/26 05:38:59;;;;;;;;;;;19.70;72.00;;;;;;5012364;28;20413;-63
2022/05/26 05:41:26;;;;;;;;;;;19.70;72.40;;;;;;5018127;28;19914;-63
2022/05/26 05:43:54;;;;;;;;;;;19.60;71.60;;;;;;5025242;28;19909;-64
2022/05/26 05:46:21;;;;;;;;;;;19.50;72.60;;;;;;5022390;28;20424;-63
2022/05/26 05:48:48;;;;;;;;;;;19.50;73.20;;;;;;5019469;28;19932;-63
2022/05/26 05:51:16;;;;;;;;;;;19.40;73.50;;;;;;5024678;28;19913;-62
2022/05/26 05:53:43;;;;;;;;;;;19.30;73.90;;;;;;5021073;28;19917;-63
2022/05/26 05:56:10;;;;;;;;;;;19.30;73.50;;;;;;5021375;28;19913;-63
2022/05/26 05:58:36;;;;;;;;;;;19.30;73.70;;;;;;5020475;28;19909;-64
2022/05/26 06:01:05;;;;;;;;;;;19.20;74.20;;;;;;5020288;28;19980;-64
2022/05/26 06:03:33;;;;;;;;;;;19.20;74.30;;;;;;5017051;28;20371;-64
2022/05/26 06:06:00;;;;;;;;;;;19.00;74.90;;;;;;5025786;28;19963;-64
2022/05/26 06:08:26;;;;;;;;;;;19.00;75.10;;;;;;5025942;28;19949;-64
2022/05/26 06:10:53;;;;;;;;;;;18.90;75.50;;;;;;5027149;28;20006;-65
2022/05/26 06:13:20;;;;;;;;;;;18.70;75.60;;;;;;5023542;28;20013;-64
2022/05/26 06:15:46;;;;;;;;;;;18.60;76.30;;;;;;5026803;28;19944;-64
2022/05/26 06:18:16;;;;;;;;;;;18.60;76.30;;;;;;5022242;28;19948;-64
2022/05/26 06:20:43;;;;;;;;;;;18.40;76.70;;;;;;5025688;28;19905;-64
2022/05/26 06:23:09;;;;;;;;;;;18.30;77.00;;;;;;5029175;28;19917;-62
2022/05/26 06:25:36;;;;;;;;;;;18.20;77.40;;;;;;5022010;28;19921;-63
2022/05/26 06:30:47;;;;;;;;;;;18.00;78.30;;;;;;5025851;28;20376;-63
2022/05/26 06:38:44;;;;;;;;;;;17.70;79.30;;;;;;5023677;28;20545;-62
2022/05/26 06:43:58;;;;;;;;;;;17.50;80.50;;;;;;5026789;28;20040;-63
2022/05/26 06:46:25;;;;;;;;;;;17.40;80.30;;;;;;5026412;28;19913;-63
2022/05/26 06:48:52;;;;;;;;;;;17.30;80.50;;;;;;5030012;28;19909;-62
2022/05/26 06:51:19;;;;;;;;;;;17.20;81.20;;;;;;5027519;28;19912;-62
2022/05/26 06:53:46;;;;;;;;;;;17.00;81.60;;;;;;5030576;28;19999;-63
2022/05/26 06:56:13;;;;;;;;;;;16.90;82.00;;;;;;5019398;28;20441;-63
2022/05/26 06:58:40;;;;;;;;;;;16.80;82.40;;;;;;5027977;28;19967;-62
2022/05/26 07:01:06;;;;;;;;;;;16.70;83.00;;;;;;5018911;28;20365;-62
2022/05/26 07:03:33;;;;;;;;;;;16.50;83.60;;;;;;5027152;28;19951;-62
2022/05/26 07:05:59;;;;;;;;;;;16.40;83.90;;;;;;5023594;28;19922;-62
2022/05/26 07:08:26;;;;;;;;;;;16.20;84.20;;;;;;5007452;28;19921;-63
2022/05/26 07:10:54;;;;;;;;;;;16.10;84.70;;;;;;5007594;28;19913;-62
2022/05/26 07:13:21;;;;;;;;;;;16.00;85.40;;;;;;5007905;28;19913;-62
2022/05/26 07:15:47;;;;;;;;;;;15.90;85.70;;;;;;5008134;28;19909;-62
2022/05/26 07:18:14;;;;;;;;;;;15.70;85.90;;;;;;5024007;28;19958;-63
2022/05/26 07:20:41;;;;;;;;;;;15.60;86.60;;;;;;5022819;28;19909;-64
2022/05/26 07:23:10;;;;;;;;;;;15.50;87.50;;;;;;5011681;28;19944;-64
2022/05/26 07:25:43;;;;;;;;;;;15.50;88.00;;;;;;5010466;28;20428;-64
2022/05/26 07:28:13;;;;;;;;;;;15.40;88.30;;;;;;5025906;28;20432;-64
2022/05/26 07:30:40;;;;;;;;;;;15.30;88.50;;;;;;5025638;28;20436;-69
2022/05/26 07:33:07;;;;;;;;;;;15.20;88.90;;;;;;5023321;28;19909;-59
2022/05/26 07:35:34;;;;;;;;;;;15.10;89.50;;;;;;5020701;28;19914;-59
2022/05/26 07:43:34;;;;;;;;;;;15.10;91.10;;;;;;5013029;28;19971;-57
2022/05/26 07:46:01;;;;;;;;;;;15.10;91.10;;;;;;5008038;28;19968;-60
2022/05/26 07:48:28;;;;;;;;;;;15.10;90.60;;;;;;5007738;28;19912;-59
2022/05/26 07:50:54;;;;;;;;;;;15.10;90.80;;;;;;5008013;28;19963;-59
2022/05/26 07:53:21;;;;;;;;;;;15.10;90.90;;;;;;5020548;28;19916;-58
2022/05/26 07:55:48;;;;;;;;;;;15.10;91.00;;;;;;5024012;28;20270;-58
2022/05/26 07:58:15;;;;;;;;;;;15.00;91.10;;;;;;5024309;28;19948;-60
2022/05/26 08:00:41;;;;;;;;;;;15.00;91.90;;;;;;5016488;28;19917;-60
2022/05/26 08:03:08;;;;;;;;;;;15.20;91.50;;;;;;5021387;28;19909;-60
2022/05/26 08:05:35;;;;;;;;;;;15.40;91.10;;;;;;5023707;28;19917;-60
2022/05/26 08:08:01;;;;;;;;;;;15.50;90.80;;;;;;5022371;28;21288;-61
2022/05/26 08:10:28;;;;;;;;;;;15.40;90.80;;;;;;5010832;28;20277;-60
2022/05/26 08:12:55;;;;;;;;;;;15.40;91.00;;;;;;5007090;28;19912;-60
2022/05/26 08:15:22;;;;;;;;;;;15.30;91.40;;;;;;5007087;28;20277;-60
2022/05/26 08:17:48;;;;;;;;;;;15.20;92.00;;;;;;5008078;28;19983;-61
2022/05/26 08:20:15;;;;;;;;;;;15.10;92.00;;;;;;5009820;28;19943;-61
2022/05/26 08:22:42;;;;;;;;;;;15.10;92.90;;;;;;5024771;28;19936;-61
2022/05/26 08:25:09;;;;;;;;;;;15.00;92.70;;;;;;5025947;28;19920;-61
2022/05/26 08:27:38;;;;;;;;;;;14.90;93.10;;;;;;5011431;28;20325;-60
2022/05/26 08:30:07;;;;;;;;;;;14.90;93.90;;;;;;5006996;28;19905;-60
2022/05/26 08:32:36;;;;;;;;;;;14.90;94.10;;;;;;5008563;28;19955;-60
2022/05/26 08:35:36;;;;;;;;;;;15.00;93.90;;;;;;5007310;28;19917;-60
2022/05/26 08:38:11;;;;;;;;;;;15.00;94.00;;;;;;5020110;28;20681;-60
2022/05/26 08:44:11;;;;;;;;;;;14.70;93.80;;;;;;4984654;28;19913;-59
2022/05/26 08:47:06;;;;;;;;;;;14.70;94.60;;;;;;4983859;28;19921;-62
2022/05/26 08:52:30;;;;;;;;;;;14.80;95.30;;;;;;5015953;28;20640;-60
2022/05/26 08:58:51;;;;;;;;;;;14.80;95.10;;;;;;5015472;28;19919;-62
2022/05/26 09:01:33;;;;;;;;;;;14.70;95.00;;;;;;5023131;28;19917;-60
2022/05/26 09:04:11;;;;;;;;;;;14.60;95.10;;;;;;5028586;28;19960;-63
2022/05/26 09:15:19;;;;;;;;;;;14.40;96.00;;;;;;5029963;28;20377;-60
2022/05/26 09:17:46;;;;;;;;;;;14.30;96.30;;;;;;5028251;28;19908;-59
2022/05/26 09:20:31;;;;;;;;;;;14.30;96.30;;;;;;5019604;28;19910;-59
2022/05/26 09:23:17;;;;;;;;;;;14.40;97.10;;;;;;5023954;28;19913;-60
2022/05/26 09:25:49;;;;;;;;;;;14.50;97.10;;;;;;5037771;28;20647;-59
2022/05/26 09:34:32;;;;;;;;;;;14.40;96.30;;;;;;5004799;28;19916;-65
2022/05/26 09:37:02;;;;;;;;;;;14.40;96.30;;;;;;5010029;28;20295;-59
2022/05/26 09:39:38;;;;;;;;;;;14.30;96.30;;;;;;5008891;28;19914;-60
2022/05/26 09:42:21;;;;;;;;;;;14.20;96.10;;;;;;5029726;28;20447;-61
2022/05/26 09:44:53;;;;;;;;;;;14.10;96.40;;;;;;5024658;28;20276;-60
2022/05/26 09:47:23;;;;;;;;;;;14.10;96.60;;;;;;5020416;28;19913;-61
2022/05/26 09:52:46;;;;;;;;;;;14.10;97.00;;;;;;5015764;28;19955;-59
2022/05/26 09:55:24;;;;;;;;;;;14.00;97.00;;;;;;5012777;28;19920;-60
2022/05/26 09:58:04;;;;;;;;;;;14.10;97.20;;;;;;5024244;28;19916;-60
2022/05/26 10:00:40;;;;;;;;;;;14.10;97.50;;;;;;5021648;28;19956;-60
2022/05/26 10:03:42;;;;;;;;;;;14.10;97.40;;;;;;5017960;28;19917;-60
2022/05/26 10:06:40;;;;;;;;;;;14.10;97.40;;;;;;5039483;28;20007;-62
2022/05/26 10:09:38;;;;;;;;;;;14.00;97.00;;;;;;5009739;28;19975;-61
2022/05/26 10:12:08;;;;;;;;;;;13.90;97.10;;;;;;5043201;28;19969;-60
2022/05/26 10:15:08;;;;;;;;;;;13.80;96.90;;;;;;5008841;28;19909;-59
2022/05/26 10:17:56;;;;;;;;;;;13.70;97.60;;;;;;5008893;28;19912;-58
2022/05/26 10:21:03;;;;;;;;;;;13.90;97.60;;;;;;5009069;28;19906;-59
2022/05/26 10:26:55;;;;;;;;;;;13.70;97.20;;;;;;5005740;28;19917;-61
2022/05/26 10:29:41;;;;;;;;;;;13.70;97.40;;;;;;5025160;28;20301;-60
2022/05/26 10:32:23;;;;;;;;;;;13.60;97.10;;;;;;5028257;28;19905;-61
2022/05/26 10:38:01;;;;;;;;;;;13.40;97.00;;;;;;5010061;28;19913;-59
2022/05/26 10:40:42;;;;;;;;;;;13.30;97.00;;;;;;5008862;28;20007;-59
2022/05/26 10:46:37;;;;;;;;;;;13.20;97.30;;;;;;5026619;28;19924;-59
2022/05/26 10:49:09;;;;;;;;;;;13.10;97.20;;;;;;5026550;28;19924;-60
2022/05/26 10:52:07;;;;;;;;;;;13.10;97.20;;;;;;5027500;28;19913;-61
2022/05/26 10:55:06;;;;;;;;;;;13.00;97.20;;;;;;5026746;28;19916;-61
2022/05/26 11:00:36;;;;;;;;;;;13.00;97.70;;;;;;5026322;28;19967;-61
2022/05/26 11:03:19;;;;;;;;;;;13.00;97.80;;;;;;5028268;28;19916;-60
2022/05/26 11:05:50;;;;;;;;;;;13.00;97.60;;;;;;5024273;28;19917;-59
2022/05/26 11:08:32;;;;;;;;;;;12.90;97.40;;;;;;5025922;28;20310;-59
2022/05/26 11:11:11;;;;;;;;;;;12.80;97.30;;;;;;5027581;28;20364;-58
2022/05/26 11:13:43;;;;;;;;;;;12.80;97.30;;;;;;5025399;28;19913;-59
2022/05/26 11:19:17;;;;;;;;;;;12.60;97.20;;;;;;5024050;28;19916;-58
2022/05/26 11:21:43;;;;;;;;;;;12.50;97.30;;;;;;5027267;28;19936;-59
2022/05/26 11:24:10;;;;;;;;;;;12.50;97.30;;;;;;5021758;28;19919;-58
2022/05/26 11:26:50;;;;;;;;;;;12.40;97.40;;;;;;5025332;28;19920;-58
2022/05/26 11:29:20;;;;;;;;;;;12.40;97.50;;;;;;5025026;28;19912;-59
2022/05/26 11:37:28;;;;;;;;;;;12.30;97.60;;;;;;5023734;28;19951;-59
2022/05/26 11:39:57;;;;;;;;;;;12.30;97.70;;;;;;5018945;28;20007;-60
2022/05/26 11:42:34;;;;;;;;;;;12.30;97.60;;;;;;5023447;28;20333;-64
2022/05/26 11:45:09;;;;;;;;;;;12.20;97.70;;;;;;5021847;28;19963;-58
2022/05/26 11:47:48;;;;;;;;;;;12.20;97.70;;;;;;5024697;28;19943;-59
2022/05/26 11:50:28;;;;;;;;;;;12.20;97.80;;;;;;5024409;28;19917;-59
2022/05/26 11:52:55;;;;;;;;;;;12.20;97.90;;;;;;5023465;28;20358;-59
2022/05/26 11:55:28;;;;;;;;;;;12.20;98.10;;;;;;5025337;28;19958;-60
2022/05/26 11:57:54;;;;;;;;;;;12.20;97.90;;;;;;5019224;28;19913;-61
2022/05/26 12:00:40;;;;;;;;;;;12.10;97.80;;;;;;5019478;28;19909;-57
2022/05/26 12:03:24;;;;;;;;;;;12.10;97.90;;;;;;5021530;28;19905;-59
2022/05/26 12:05:58;;;;;;;;;;;12.10;98.30;;;;;;5027501;28;19940;-60
2022/05/26 12:08:44;;;;;;;;;;;12.10;98.30;;;;;;5026962;28;19925;-63
2022/05/26 12:11:13;;;;;;;;;;;12.20;98.50;;;;;;5024526;28;19917;-59
2022/05/26 12:13:41;;;;;;;;;;;12.20;98.50;;;;;;5026822;28;20574;-58
2022/05/26 12:16:10;;;;;;;;;;;12.20;98.50;;;;;;5025634;28;20267;-59
2022/05/26 12:18:51;;;;;;;;;;;12.20;98.50;;;;;;5025613;28;19928;-58
2022/05/26 12:21:34;;;;;;;;;;;12.20;98.30;;;;;;5026018;28;19920;-59
2022/05/26 12:24:19;;;;;;;;;;;12.10;98.30;;;;;;5026602;28;19912;-59
2022/05/26 12:26:54;;;;;;;;;;;12.10;98.30;;;;;;5025168;28;20637;-59
2022/05/26 12:29:39;;;;;;;;;;;12.10;98.30;;;;;;5028695;28;19909;-60
2022/05/26 12:32:10;;;;;;;;;;;12.10;98.20;;;;;;5025362;28;19909;-59
2022/05/26 12:34:42;;;;;;;;;;;12.00;98.10;;;;;;5029636;28;19913;-59
2022/05/26 12:37:15;;;;;;;;;;;12.00;98.20;;;;;;5030720;28;19913;-59
2022/05/26 12:39:43;;;;;;;;;;;12.00;98.40;;;;;;5029988;28;20262;-59
2022/05/26 12:42:09;;;;;;;;;;;12.00;98.20;;;;;;5027036;28;19917;-59
2022/05/26 12:44:54;;;;;;;;;;;11.90;98.20;;;;;;5026869;28;20254;-60
2022/05/26 12:47:36;;;;;;;;;;;11.90;98.30;;;;;;5022912;28;19936;-59
2022/05/26 12:50:09;;;;;;;;;;;11.90;98.30;;;;;;5030264;28;19921;-60
2022/05/26 12:52:43;;;;;;;;;;;11.80;98.50;;;;;;5028764;28;19913;-59
2022/05/26 12:55:20;;;;;;;;;;;12.00;99.00;;;;;;5030501;28;19912;-60
2022/05/26 12:57:50;;;;;;;;;;;11.90;98.40;;;;;;5030299;28;19909;-60
2022/05/26 13:00:21;;;;;;;;;;;11.80;98.20;;;;;;5026956;28;19920;-59
2022/05/26 13:03:07;;;;;;;;;;;11.70;98.40;;;;;;5029619;28;19940;-59
2022/05/26 13:05:35;;;;;;;;;;;11.70;98.60;;;;;;5032022;28;19979;-59
2022/05/26 13:08:03;;;;;;;;;;;11.80;99.10;;;;;;5030386;28;19908;-59
2022/05/26 13:10:35;;;;;;;;;;;12.00;99.90;;;;;;5031572;28;19920;-59
2022/05/26 13:13:05;;;;;;;;;;;12.20;99.90;;;;;;5031711;28;19979;-59
2022/05/26 13:15:31;;;;;;;;;;;12.30;99.90;;;;;;5032450;28;19909;-59
2022/05/26 13:17:58;;;;;;;;;;;12.30;99.90;;;;;;5032344;28;19913;-59
2022/05/26 13:20:38;;;;;;;;;;;12.20;99.90;;;;;;5030199;28;20381;-59
2022/05/26 13:23:05;;;;;;;;;;;12.20;99.60;;;;;;5026194;28;19919;-59
2022/05/26 13:25:33;;;;;;;;;;;12.10;99.30;;;;;;5032442;28;19917;-59
2022/05/26 13:28:02;;;;;;;;;;;12.00;99.10;;;;;;5031059;28;19916;-59
2022/05/26 13:33:25;;;;;;;;;;;11.90;98.70;;;;;;5029609;28;19920;-59
2022/05/26 13:35:55;;;;;;;;;;;11.70;98.50;;;;;;5031429;28;19963;-59
2022/05/26 13:38:32;;;;;;;;;;;11.50;98.40;;;;;;5032650;28;19905;-59
2022/05/26 13:41:00;;;;;;;;;;;11.50;98.30;;;;;;5031001;28;19928;-59
2022/05/26 13:43:27;;;;;;;;;;;11.40;98.40;;;;;;5026665;28;19909;-60
2022/05/26 13:45:54;;;;;;;;;;;11.30;98.40;;;;;;5032015;28;19968;-59
2022/05/26 13:48:27;;;;;;;;;;;11.20;98.60;;;;;;5031680;28;20023;-59
2022/05/26 13:50:56;;;;;;;;;;;11.20;98.80;;;;;;5029315;28;19959;-59
2022/05/26 13:53:25;;;;;;;;;;;11.20;98.90;;;;;;5030941;28;20021;-59
2022/05/26 13:55:53;;;;;;;;;;;11.20;98.90;;;;;;5031230;28;19913;-59
2022/05/26 13:58:20;;;;;;;;;;;11.20;98.90;;;;;;5031507;28;19999;-58
2022/05/26 14:00:56;;;;;;;;;;;11.20;98.90;;;;;;5029286;28;19917;-59
2022/05/26 14:03:24;;;;;;;;;;;11.20;98.90;;;;;;5032146;28;19995;-59
2022/05/26 14:06:02;;;;;;;;;;;11.20;98.90;;;;;;5030151;28;19924;-59
2022/05/26 14:08:29;;;;;;;;;;;11.20;99.10;;;;;;5029743;28;19913;-59
2022/05/26 14:10:56;;;;;;;;;;;11.10;98.90;;;;;;5031270;28;19962;-58
2022/05/26 14:13:24;;;;;;;;;;;11.10;98.90;;;;;;5030250;28;20354;-58
2022/05/26 14:15:56;;;;;;;;;;;11.10;98.90;;;;;;5029605;28;19955;-58
2022/05/26 14:18:25;;;;;;;;;;;11.10;98.70;;;;;;5031794;28;20258;-58
2022/05/26 14:21:18;;;;;;;;;;;11.00;98.70;;;;;;5025011;28;19909;-59
2022/05/26 14:24:04;;;;;;;;;;;11.00;98.60;;;;;;5030046;28;19913;-59
2022/05/26 14:26:36;;;;;;;;;;;10.90;98.60;;;;;;5023231;28;20507;-59
2022/05/26 14:29:08;;;;;;;;;;;10.80;98.80;;;;;;5031014;28;19909;-58
2022/05/26 14:31:35;;;;;;;;;;;10.80;98.80;;;;;;5019597;28;20267;-58
2022/05/26 14:34:21;;;;;;;;;;;11.00;99.50;;;;;;5011515;28;20333;-59
2022/05/26 14:36:48;;;;;;;;;;;11.00;99.40;;;;;;5024710;28;19912;-58
2022/05/26 14:39:15;;;;;;;;;;;10.90;99.10;;;;;;5030266;28;19913;-58
2022/05/26 14:41:42;;;;;;;;;;;10.90;99.00;;;;;;5029142;28;19917;-58
2022/05/26 14:44:10;;;;;;;;;;;10.80;99.00;;;;;;5029634;28;19909;-58
2022/05/26 14:46:37;;;;;;;;;;;10.80;98.90;;;;;;5029275;28;19925;-59
2022/05/26 14:49:03;;;;;;;;;;;10.70;98.90;;;;;;5029395;28;20610;-59
2022/05/26 14:51:31;;;;;;;;;;;10.80;99.30;;;;;;5029377;28;19913;-59
2022/05/26 14:56:46;;;;;;;;;;;11.00;99.70;;;;;;5019059;28;19955;-59
2022/05/26 14:59:13;;;;;;;;;;;11.10;99.90;;;;;;5028231;28;19913;-59
2022/05/26 15:01:40;;;;;;;;;;;11.20;99.90;;;;;;5027536;28;19917;-58
2022/05/26 15:04:06;;;;;;;;;;;11.20;99.80;;;;;;5029501;28;19991;-59
2022/05/26 15:06:38;;;;;;;;;;;11.20;99.80;;;;;;5030660;28;19936;-57
2022/05/26 15:09:25;;;;;;;;;;;11.20;99.80;;;;;;5028668;28;19925;-58
2022/05/26 15:11:52;;;;;;;;;;;11.10;99.20;;;;;;5043330;28;19909;-59
2022/05/26 15:14:20;;;;;;;;;;;11.00;99.30;;;;;;5028769;28;19968;-58
2022/05/26 15:16:47;;;;;;;;;;;11.00;99.30;;;;;;5030251;28;20007;-58
2022/05/26 15:19:17;;;;;;;;;;;11.00;99.30;;;;;;5028505;28;19917;-58
2022/05/26 15:21:45;;;;;;;;;;;10.90;99.20;;;;;;5027811;28;19913;-58
2022/05/26 15:24:12;;;;;;;;;;;10.90;99.20;;;;;;5030125;28;19959;-59
2022/05/26 15:26:39;;;;;;;;;;;10.80;99.00;;;;;;5027341;28;19925;-59
2022/05/26 15:29:06;;;;;;;;;;;10.80;99.10;;;;;;5029278;28;19967;-58
2022/05/26 15:31:33;;;;;;;;;;;10.80;99.20;;;;;;5041752;28;20431;-58
2022/05/26 15:34:00;;;;;;;;;;;10.80;99.40;;;;;;5012934;28;19988;-58
2022/05/26 15:36:31;;;;;;;;;;;10.80;99.40;;;;;;5016057;28;19916;-58
2022/05/26 15:38:58;;;;;;;;;;;10.90;99.40;;;;;;5029170;28;19963;-58
2022/05/26 15:41:25;;;;;;;;;;;10.90;99.40;;;;;;5029695;28;19963;-58
2022/05/26 15:43:52;;;;;;;;;;;10.90;99.40;;;;;;5028903;28;19951;-58
2022/05/26 15:46:21;;;;;;;;;;;10.90;99.40;;;;;;5029074;28;19917;-58
2022/05/26 15:48:48;;;;;;;;;;;10.80;99.40;;;;;;5029059;28;19920;-58
2022/05/26 15:51:16;;;;;;;;;;;10.80;99.40;;;;;;5028983;28;20015;-58
2022/05/26 15:53:43;;;;;;;;;;;10.90;99.50;;;;;;5028643;28;19909;-59
2022/05/26 15:56:15;;;;;;;;;;;10.90;99.60;;;;;;5028183;28;20396;-59
2022/05/26 15:58:42;;;;;;;;;;;10.90;99.70;;;;;;5027494;28;19936;-60
2022/05/26 16:01:08;;;;;;;;;;;10.90;99.50;;;;;;5026244;28;20611;-59
2022/05/26 16:03:35;;;;;;;;;;;10.80;99.30;;;;;;5029832;28;19912;-58
2022/05/26 16:06:01;;;;;;;;;;;10.80;99.30;;;;;;5031491;28;19921;-58
2022/05/26 16:08:28;;;;;;;;;;;10.70;99.10;;;;;;5031577;28;19960;-59